createdAt,value
2018-12-27T00:01:47.130Z,3.20
2018-12-27T00:04:28.312Z,3.20
2018-12-27T00:06:57.344Z,3.10
2018-12-27T00:09:45.605Z,3.10
2018-12-27T00:12:26.873Z,3.10
2018-12-27T00:15:07.448Z,3.10
2018-12-27T00:17:48.358Z,3.10
2018-12-27T00:20:28.980Z,3.00
2018-12-27T00:23:10.041Z,3.00
2018-12-27T00:25:51.095Z,3.10
2018-12-27T00:28:20.259Z,3.00
2018-12-27T00:31:08.420Z,3.00
2018-12-27T00:33:48.966Z,3.00
2018-12-27T00:36:29.767Z,3.00
2018-12-27T00:39:10.234Z,3.00
2018-12-27T00:41:51.285Z,3.00
2018-12-27T00:44:31.875Z,3.00
2018-12-27T00:47:12.988Z,3.00
2018-12-27T00:49:54.062Z,2.90
2018-12-27T00:52:23.030Z,2.90
2018-12-27T00:55:11.328Z,2.80
2018-12-27T00:57:52.209Z,2.80
2018-12-27T01:00:21.512Z,2.80
2018-12-27T01:03:11.290Z,2.80
2018-12-27T01:05:59.731Z,2.70
2018-12-27T01:08:40.272Z,2.70
2018-12-27T01:11:21.216Z,2.70
2018-12-27T01:14:01.696Z,2.70
2018-12-27T01:16:30.853Z,2.60
2018-12-27T01:19:18.922Z,2.60
2018-12-27T01:22:00.038Z,2.60
2018-12-27T01:24:39.201Z,2.60
2018-12-27T01:27:20.217Z,2.50
2018-12-27T01:30:01.800Z,2.50
2018-12-27T01:32:42.734Z,2.40
2018-12-27T01:35:23.716Z,2.40
2018-12-27T01:37:52.731Z,2.40
2018-12-27T01:40:40.835Z,2.40
2018-12-27T01:43:28.937Z,2.40
2018-12-27T01:46:09.909Z,2.40
2018-12-27T01:48:50.411Z,2.30
2018-12-27T01:51:30.945Z,2.40
2018-12-27T01:54:11.595Z,2.30
2018-12-27T01:56:52.424Z,2.30
2018-12-27T01:59:33.513Z,2.40
2018-12-27T02:02:14.043Z,2.30
2018-12-27T02:04:43.335Z,2.30
2018-12-27T02:07:31.792Z,2.30
2018-12-27T02:10:12.901Z,2.30
2018-12-27T02:12:53.416Z,2.30
2018-12-27T02:15:34.291Z,2.30
2018-12-27T02:18:14.941Z,2.30
2018-12-27T02:20:55.760Z,2.30
2018-12-27T02:23:36.454Z,2.30
2018-12-27T02:26:17.108Z,2.20
2018-12-27T02:28:57.872Z,2.20
2018-12-27T02:31:38.874Z,2.30
2018-12-27T02:34:18.082Z,2.20
2018-12-27T02:36:59.127Z,2.20
2018-12-27T02:39:40.168Z,2.20
2018-12-27T02:42:21.637Z,2.20
2018-12-27T02:48:15.038Z,2.20
2018-12-27T02:50:56.508Z,2.20
2018-12-27T02:53:38.332Z,2.20
2018-12-27T02:56:18.934Z,2.20
2018-12-27T02:58:59.865Z,2.20
2018-12-27T03:01:28.841Z,2.20
2018-12-27T03:04:17.032Z,2.20
2018-12-27T03:07:05.139Z,2.20
2018-12-27T03:09:45.861Z,2.10
2018-12-27T03:12:26.962Z,2.10
2018-12-27T03:15:07.579Z,2.10
2018-12-27T03:17:36.554Z,2.10
2018-12-27T03:20:25.120Z,2.00
2018-12-27T03:22:54.086Z,2.00
2018-12-27T03:25:42.597Z,2.00
2018-12-27T03:28:30.693Z,2.00
2018-12-27T03:31:13.093Z,2.00
2018-12-27T03:33:53.901Z,2.00
2018-12-27T03:36:35.021Z,1.90
2018-12-27T03:39:05.776Z,1.90
2018-12-27T03:41:54.080Z,1.90
2018-12-27T03:44:35.196Z,1.90
2018-12-27T03:47:16.194Z,1.90
2018-12-27T03:49:45.236Z,1.80
2018-12-27T03:52:14.198Z,1.80
2018-12-27T03:55:02.394Z,1.80
2018-12-27T03:57:41.730Z,1.80
2018-12-27T04:00:22.371Z,1.80
2018-12-27T04:03:03.652Z,1.80
2018-12-27T04:05:33.034Z,1.80
2018-12-27T04:08:21.141Z,1.70
2018-12-27T04:11:09.461Z,1.80
2018-12-27T04:13:50.755Z,1.80
2018-12-27T04:16:31.301Z,1.80
2018-12-27T04:19:11.952Z,1.80
2018-12-27T04:21:52.625Z,1.80
2018-12-27T04:24:33.204Z,1.70
2018-12-27T04:27:14.163Z,1.80
2018-12-27T04:29:53.277Z,1.70
2018-12-27T04:35:20.130Z,1.70
2018-12-27T04:38:08.397Z,1.80
2018-12-27T04:40:49.571Z,1.70
2018-12-27T04:43:30.802Z,1.70
2018-12-27T04:46:11.957Z,1.70
2018-12-27T04:48:40.874Z,1.80
2018-12-27T04:51:28.958Z,1.80
2018-12-27T04:54:17.169Z,1.80
2018-12-27T04:56:58.417Z,1.80
2018-12-27T04:59:39.118Z,1.80
2018-12-27T05:02:19.844Z,1.70
2018-12-27T05:05:00.809Z,1.70
2018-12-27T05:07:41.294Z,1.70
2018-12-27T05:10:22.302Z,1.70
2018-12-27T05:12:51.126Z,1.70
2018-12-27T05:15:39.308Z,1.60
2018-12-27T05:18:08.116Z,1.60
2018-12-27T05:20:56.426Z,1.60
2018-12-27T05:23:37.202Z,1.50
2018-12-27T05:26:18.098Z,1.50
2018-12-27T05:28:58.628Z,1.50
2018-12-27T05:31:39.461Z,1.50
2018-12-27T05:34:26.102Z,1.50
2018-12-27T05:37:03.366Z,1.50
2018-12-27T05:39:32.215Z,1.50
2018-12-27T05:42:20.381Z,1.50
2018-12-27T05:45:01.227Z,1.50
2018-12-27T05:47:40.732Z,1.50
2018-12-27T05:50:28.717Z,1.50
2018-12-27T05:53:09.385Z,1.60
2018-12-27T05:55:50.150Z,1.50
2018-12-27T05:58:19.128Z,1.50
2018-12-27T06:01:07.153Z,1.50
2018-12-27T06:03:36.267Z,1.50
2018-12-27T06:06:26.617Z,1.50
2018-12-27T06:08:55.629Z,1.50
2018-12-27T06:11:24.488Z,1.50
2018-12-27T06:14:32.729Z,1.50
2018-12-27T06:17:20.763Z,1.50
2018-12-27T06:20:01.145Z,1.50
2018-12-27T06:22:42.220Z,1.50
2018-12-27T06:25:23.729Z,1.50
2018-12-27T06:28:02.778Z,1.50
2018-12-27T06:30:44.302Z,1.50
2018-12-27T06:33:24.953Z,1.50
2018-12-27T06:36:06.053Z,1.60
2018-12-27T06:38:47.161Z,1.50
2018-12-27T06:41:16.156Z,1.50
2018-12-27T06:44:04.153Z,1.60
2018-12-27T06:46:45.494Z,1.70
2018-12-27T06:49:14.371Z,1.70
2018-12-27T06:52:02.798Z,1.70
2018-12-27T06:54:50.830Z,1.70
2018-12-27T06:57:31.506Z,1.70
2018-12-27T07:00:13.047Z,1.80
2018-12-27T07:02:53.795Z,1.80
2018-12-27T07:05:22.990Z,1.80
2018-12-27T07:08:11.134Z,1.80
2018-12-27T07:10:59.143Z,1.80
2018-12-27T07:13:40.541Z,1.80
2018-12-27T07:16:20.992Z,1.90
2018-12-27T07:19:01.884Z,1.90
2018-12-27T07:21:42.488Z,1.90
2018-12-27T07:24:11.764Z,1.90
2018-12-27T07:27:00.052Z,1.90
2018-12-27T07:29:48.327Z,1.90
2018-12-27T07:32:28.750Z,1.90
2018-12-27T07:35:09.838Z,2.00
2018-12-27T07:37:50.484Z,1.90
2018-12-27T07:40:32.069Z,1.90
2018-12-27T07:43:12.433Z,1.90
2018-12-27T07:45:53.401Z,1.90
2018-12-27T07:48:34.217Z,1.90
2018-12-27T07:51:15.056Z,1.90
2018-12-27T07:53:56.307Z,2.00
2018-12-27T07:56:37.023Z,1.90
2018-12-27T07:59:17.561Z,1.90
2018-12-27T08:01:58.660Z,2.00
2018-12-27T08:04:37.806Z,2.00
2018-12-27T08:07:23.649Z,2.00
2018-12-27T08:10:10.112Z,2.00
2018-12-27T08:15:37.873Z,2.00
2018-12-27T08:21:17.155Z,2.00
2018-12-27T08:23:58.887Z,2.00
2018-12-27T08:26:27.898Z,2.00
2018-12-27T08:28:56.850Z,2.10
2018-12-27T08:31:45.545Z,2.10
2018-12-27T08:34:33.861Z,2.10
2018-12-27T08:37:14.563Z,2.10
2018-12-27T08:39:55.849Z,2.10
2018-12-27T08:42:39.215Z,2.10
2018-12-27T08:45:08.237Z,2.10
2018-12-27T08:48:16.273Z,2.10
2018-12-27T08:50:45.092Z,2.20
2018-12-27T08:56:26.757Z,2.20
2018-12-27T08:59:15.369Z,2.20
2018-12-27T09:02:03.550Z,2.20
2018-12-27T09:04:51.583Z,2.30
2018-12-27T09:07:32.589Z,2.30
2018-12-27T09:13:12.059Z,2.40
2018-12-27T09:15:52.931Z,2.40
2018-12-27T09:18:34.980Z,2.50
2018-12-27T09:21:03.870Z,2.50
2018-12-27T09:23:52.390Z,2.50
2018-12-27T09:26:34.881Z,2.60
2018-12-27T09:29:16.061Z,2.60
2018-12-27T09:31:44.889Z,2.60
2018-12-27T09:34:33.642Z,2.60
2018-12-27T09:37:21.993Z,2.60
2018-12-27T09:40:04.514Z,2.70
2018-12-27T09:42:47.235Z,2.70
2018-12-27T09:45:28.368Z,2.70
2018-12-27T09:48:12.464Z,2.70
2018-12-27T09:50:55.416Z,2.70
2018-12-27T09:53:36.352Z,2.70
2018-12-27T09:56:17.776Z,2.70
2018-12-27T09:58:58.500Z,2.80
2018-12-27T10:01:27.533Z,2.70
2018-12-27T10:04:15.572Z,2.70
2018-12-27T10:09:50.836Z,2.70
2018-12-27T10:12:19.812Z,2.70
2018-12-27T10:15:08.725Z,2.70
2018-12-27T10:17:57.035Z,2.70
2018-12-27T10:20:38.033Z,2.80
2018-12-27T10:23:19.206Z,2.90
2018-12-27T10:26:02.016Z,2.90
2018-12-27T10:28:43.562Z,2.90
2018-12-27T10:31:24.726Z,2.80
2018-12-27T10:34:05.052Z,2.80
2018-12-27T10:36:46.255Z,2.80
2018-12-27T10:39:27.169Z,2.90
2018-12-27T10:42:08.600Z,2.90
2018-12-27T10:44:50.117Z,3.00
2018-12-27T10:47:19.302Z,3.20
2018-12-27T10:53:02.173Z,3.50
2018-12-27T10:55:43.380Z,3.70
2018-12-27T10:58:12.526Z,3.80
2018-12-27T11:01:00.732Z,3.90
2018-12-27T11:03:49.735Z,4.10
2018-12-27T11:06:31.838Z,4.10
2018-12-27T11:09:12.588Z,4.10
2018-12-27T11:11:53.497Z,4.10
2018-12-27T11:14:34.470Z,4.20
2018-12-27T11:17:15.674Z,4.20
2018-12-27T11:19:58.124Z,4.20
2018-12-27T11:22:39.233Z,4.30
2018-12-27T11:25:19.831Z,4.20
2018-12-27T11:28:00.228Z,4.20
2018-12-27T11:30:41.581Z,4.20
2018-12-27T11:33:22.134Z,4.20
2018-12-27T11:35:55.743Z,4.20
2018-12-27T11:38:40.888Z,4.20
2018-12-27T11:41:29.044Z,4.30
2018-12-27T11:44:17.168Z,4.30
2018-12-27T11:46:56.527Z,4.30
2018-12-27T11:49:37.627Z,4.30
2018-12-27T11:52:18.078Z,4.30
2018-12-27T11:55:01.293Z,4.30
2018-12-27T11:57:42.434Z,4.30
2018-12-27T12:00:23.586Z,4.40
2018-12-27T12:03:04.445Z,4.40
2018-12-27T12:05:45.421Z,4.50
2018-12-27T12:08:25.891Z,4.50
2018-12-27T12:11:06.573Z,4.60
2018-12-27T12:13:47.441Z,4.60
2018-12-27T12:16:28.283Z,4.60
2018-12-27T12:19:08.750Z,4.60
2018-12-27T12:21:50.488Z,4.70
2018-12-27T12:24:31.501Z,4.70
2018-12-27T12:27:12.056Z,4.70
2018-12-27T12:29:53.380Z,4.80
2018-12-27T12:32:22.345Z,4.80
2018-12-27T12:37:45.481Z,5.00
2018-12-27T12:40:33.489Z,5.10
2018-12-27T12:43:21.884Z,5.10
2018-12-27T12:48:44.973Z,5.10
2018-12-27T12:51:32.975Z,5.20
2018-12-27T12:54:21.170Z,5.20
2018-12-27T12:57:00.649Z,5.20
2018-12-27T12:59:48.830Z,5.20
2018-12-27T13:02:29.302Z,5.30
2018-12-27T13:05:10.329Z,5.30
2018-12-27T13:07:51.397Z,5.40
2018-12-27T13:10:32.557Z,5.40
2018-12-27T13:13:13.281Z,5.40
2018-12-27T13:15:54.352Z,5.40
2018-12-27T13:18:35.370Z,5.40
2018-12-27T13:21:16.281Z,5.40
2018-12-27T13:23:45.202Z,5.40
2018-12-27T13:26:33.674Z,5.40
2018-12-27T13:29:21.949Z,5.40
2018-12-27T13:32:03.348Z,5.40
2018-12-27T13:34:42.469Z,5.40
2018-12-27T13:37:24.200Z,5.40
2018-12-27T13:40:05.155Z,5.40
2018-12-27T13:42:46.144Z,5.40
2018-12-27T13:45:26.710Z,5.40
2018-12-27T13:48:07.746Z,5.30
2018-12-27T13:50:48.333Z,5.40
2018-12-27T13:56:31.092Z,5.40
2018-12-27T13:59:11.528Z,5.50
2018-12-27T14:01:52.414Z,5.50
2018-12-27T14:04:32.956Z,5.50
2018-12-27T14:07:01.961Z,5.60
2018-12-27T14:12:25.292Z,5.60
2018-12-27T14:15:13.441Z,5.60
2018-12-27T14:18:01.705Z,5.60
2018-12-27T14:20:30.668Z,5.50
2018-12-27T14:23:19.020Z,5.40
2018-12-27T14:26:07.009Z,5.50
2018-12-27T14:28:35.961Z,5.40
2018-12-27T14:31:04.861Z,5.40
2018-12-27T14:33:53.024Z,5.40
2018-12-27T14:36:39.802Z,5.40
2018-12-27T14:39:16.709Z,5.30
2018-12-27T14:41:57.096Z,5.30
2018-12-27T14:44:38.311Z,5.30
2018-12-27T14:47:19.888Z,5.20
2018-12-27T14:50:00.554Z,5.20
2018-12-27T14:52:40.965Z,5.20
2018-12-27T14:55:21.781Z,5.20
2018-12-27T14:58:02.256Z,5.10
2018-12-27T15:00:43.324Z,5.10
2018-12-27T15:03:24.105Z,5.00
2018-12-27T15:06:03.481Z,4.90
2018-12-27T15:08:51.517Z,4.90
2018-12-27T15:11:32.562Z,4.90
2018-12-27T15:14:13.784Z,4.80
2018-12-27T15:16:54.682Z,4.80
2018-12-27T15:19:35.710Z,4.80
2018-12-27T15:22:16.446Z,4.80
2018-12-27T15:24:57.129Z,4.70
2018-12-27T15:27:26.276Z,4.70
2018-12-27T15:30:14.616Z,4.60
2018-12-27T15:32:43.758Z,4.50
2018-12-27T15:35:31.875Z,4.60
2018-12-27T15:38:20.256Z,4.50
2018-12-27T15:41:01.248Z,4.40
2018-12-27T15:43:42.533Z,4.30
2018-12-27T15:46:23.121Z,4.30
2018-12-27T15:49:05.646Z,4.30
2018-12-27T15:51:47.160Z,4.20
2018-12-27T15:54:28.480Z,4.10
2018-12-27T15:57:09.633Z,4.00
2018-12-27T15:59:50.862Z,3.90
2018-12-27T16:02:31.478Z,3.90
2018-12-27T16:05:12.960Z,3.80
2018-12-27T16:07:54.411Z,3.70
2018-12-27T16:10:35.376Z,3.70
2018-12-27T16:13:16.133Z,3.60
2018-12-27T16:15:45.114Z,3.60
2018-12-27T16:18:33.411Z,3.60
2018-12-27T16:21:21.688Z,3.60
2018-12-27T16:24:10.077Z,3.60
2018-12-27T16:26:58.375Z,3.60
2018-12-27T16:29:46.569Z,3.50
2018-12-27T16:32:34.862Z,3.50
2018-12-27T16:35:22.876Z,3.40
2018-12-27T16:38:02.379Z,3.40
2018-12-27T16:40:31.558Z,3.40
2018-12-27T16:43:19.674Z,3.40
2018-12-27T16:46:07.832Z,3.40
2018-12-27T16:48:36.837Z,3.50
2018-12-27T16:51:24.876Z,3.50
2018-12-27T16:54:13.023Z,3.40
2018-12-27T16:57:01.262Z,3.40
2018-12-27T16:59:40.923Z,3.30
2018-12-27T17:02:22.461Z,3.20
2018-12-27T17:05:01.887Z,3.20
2018-12-27T17:07:42.720Z,3.20
2018-12-27T17:10:23.828Z,3.20
2018-12-27T17:13:04.912Z,3.10
2018-12-27T17:15:45.922Z,3.10
2018-12-27T17:18:26.814Z,3.10
2018-12-27T17:20:55.888Z,3.10
2018-12-27T17:23:24.740Z,3.00
2018-12-27T17:26:13.047Z,2.90
2018-12-27T17:29:01.177Z,2.90
2018-12-27T17:31:30.191Z,2.90
2018-12-27T17:34:18.202Z,2.90
2018-12-27T17:37:06.452Z,2.80
2018-12-27T17:39:54.454Z,2.90
2018-12-27T17:42:42.781Z,3.00
2018-12-27T17:45:31.496Z,2.90
2018-12-27T17:48:00.606Z,2.90
2018-12-27T17:50:48.638Z,2.90
2018-12-27T17:53:37.077Z,2.90
2018-12-27T17:56:18.256Z,2.90
2018-12-27T17:58:59.256Z,2.90
2018-12-27T18:01:39.932Z,2.90
2018-12-27T18:04:20.778Z,2.90
2018-12-27T18:07:02.589Z,2.80
2018-12-27T18:09:31.693Z,2.80
2018-12-27T18:12:00.524Z,2.70
2018-12-27T18:18:11.729Z,2.70
2018-12-27T18:20:59.801Z,2.70
2018-12-27T18:23:47.959Z,2.70
2018-12-27T18:26:36.406Z,2.70
2018-12-27T18:29:05.664Z,2.70
2018-12-27T18:31:53.690Z,2.70
2018-12-27T18:34:36.244Z,2.80
2018-12-27T18:37:16.922Z,2.80
2018-12-27T18:39:57.797Z,2.90
2018-12-27T18:42:38.543Z,2.90
2018-12-27T18:45:19.519Z,2.80
2018-12-27T18:48:00.301Z,2.80
2018-12-27T18:50:41.244Z,2.80
2018-12-27T18:59:22.197Z,2.90
2018-12-27T19:02:03.116Z,2.80
2018-12-27T19:04:43.842Z,2.80
2018-12-27T19:07:24.349Z,2.70
2018-12-27T19:10:06.529Z,2.70
2018-12-27T19:12:47.504Z,2.70
2018-12-27T19:15:28.418Z,2.60
2018-12-27T19:21:08.686Z,2.60
2018-12-27T19:23:49.231Z,2.60
2018-12-27T19:26:30.023Z,2.50
2018-12-27T19:29:10.300Z,2.50
2018-12-27T19:31:51.098Z,2.40
2018-12-27T19:34:20.071Z,2.40
2018-12-27T19:37:09.024Z,2.40
2018-12-27T19:39:57.032Z,2.30
2018-12-27T19:42:38.499Z,2.40
2018-12-27T19:45:19.593Z,2.40
2018-12-27T19:48:00.715Z,2.50
2018-12-27T19:50:29.868Z,2.50
2018-12-27T19:53:18.349Z,2.50
2018-12-27T19:56:06.479Z,2.60
2018-12-27T19:58:47.879Z,2.70
2018-12-27T20:01:16.892Z,2.60
2018-12-27T20:03:45.724Z,2.50
2018-12-27T20:09:29.438Z,2.40
2018-12-27T20:11:58.233Z,2.50
2018-12-27T20:14:46.486Z,2.50
2018-12-27T20:17:34.474Z,2.40
2018-12-27T20:20:15.755Z,2.40
2018-12-27T20:22:56.740Z,2.40
2018-12-27T20:25:25.737Z,2.40
2018-12-27T20:33:52.387Z,2.50
2018-12-27T20:36:40.465Z,2.30
2018-12-27T20:39:28.939Z,2.30
2018-12-27T20:42:09.256Z,2.30
2018-12-27T20:44:49.837Z,2.20
2018-12-27T20:47:30.476Z,2.20
2018-12-27T20:50:11.171Z,2.20
2018-12-27T20:52:51.596Z,2.20
2018-12-27T20:55:32.727Z,2.10
2018-12-27T20:58:13.563Z,2.00
2018-12-27T21:00:54.401Z,2.00
2018-12-27T21:03:35.019Z,2.00
2018-12-27T21:06:16.040Z,2.00
2018-12-27T21:08:56.668Z,1.90
2018-12-27T21:14:50.885Z,1.80
2018-12-27T21:17:31.192Z,1.80
2018-12-27T21:20:00.478Z,1.80
2018-12-27T21:22:29.289Z,1.70
2018-12-27T21:25:17.433Z,1.70
2018-12-27T21:27:58.216Z,1.60
2018-12-27T21:30:39.767Z,1.60
2018-12-27T21:33:20.883Z,1.60
2018-12-27T21:36:02.012Z,1.60
2018-12-27T21:38:43.010Z,1.60
2018-12-27T21:41:24.265Z,1.60
2018-12-27T21:43:53.073Z,1.50
2018-12-27T21:46:41.596Z,1.50
2018-12-27T21:49:29.877Z,1.50
2018-12-27T21:51:58.900Z,1.40
2018-12-27T21:54:46.907Z,1.40
2018-12-27T21:57:35.169Z,1.40
2018-12-27T22:00:04.044Z,1.40
2018-12-27T22:02:52.385Z,1.40
2018-12-27T22:05:40.392Z,1.40
2018-12-27T22:08:28.768Z,1.40
2018-12-27T22:11:16.881Z,1.40
2018-12-27T22:14:05.127Z,1.40
2018-12-27T22:16:53.128Z,1.30
2018-12-27T22:19:34.755Z,1.40
2018-12-27T22:22:15.969Z,1.40
2018-12-27T22:24:56.627Z,1.40
2018-12-27T22:27:37.305Z,1.40
2018-12-27T22:30:18.312Z,1.50
2018-12-27T22:32:58.791Z,1.50
2018-12-27T22:35:39.499Z,1.50
2018-12-27T22:38:20.057Z,1.50
2018-12-27T22:41:01.049Z,1.40
2018-12-27T22:43:41.881Z,1.40
2018-12-27T22:46:22.437Z,1.40
2018-12-27T22:49:02.775Z,1.40
2018-12-27T22:51:43.872Z,1.40
2018-12-27T22:54:24.263Z,1.40
2018-12-27T22:57:04.962Z,1.40
2018-12-27T22:59:45.763Z,1.40
2018-12-27T23:02:26.933Z,1.50
2018-12-27T23:05:07.301Z,1.50
2018-12-27T23:07:47.998Z,1.40
2018-12-27T23:10:29.220Z,1.40
2018-12-27T23:12:58.243Z,1.30
2018-12-27T23:15:46.265Z,1.30
2018-12-27T23:18:34.479Z,1.30
2018-12-27T23:21:14.764Z,1.30
2018-12-27T23:23:55.861Z,1.30
2018-12-27T23:26:37.019Z,1.20
2018-12-27T23:29:17.827Z,1.20
2018-12-27T23:31:58.192Z,1.20
2018-12-27T23:34:38.898Z,1.20
2018-12-27T23:37:19.935Z,1.10
2018-12-27T23:40:01.077Z,1.10
2018-12-27T23:42:30.932Z,1.10
2018-12-27T23:45:19.073Z,1.00
2018-12-27T23:47:59.831Z,0.90
2018-12-27T23:50:40.852Z,1.00
2018-12-27T23:53:21.799Z,0.90
2018-12-27T23:56:02.949Z,0.90
2018-12-27T23:58:43.935Z,0.90
